createdAt,value
2018-05-18T00:01:34.630Z,82.68
2018-05-18T00:04:02.015Z,82.49
2018-05-18T00:06:29.407Z,82.57
2018-05-18T00:08:56.791Z,83.07
2018-05-18T00:11:24.183Z,83.53
2018-05-18T00:13:51.579Z,83.66
2018-05-18T00:16:18.971Z,84.09
2018-05-18T00:18:46.355Z,84.39
2018-05-18T00:21:13.750Z,84.10
2018-05-18T00:23:41.138Z,84.30
2018-05-18T00:26:08.563Z,84.62
2018-05-18T00:28:35.925Z,84.75
2018-05-18T00:31:03.312Z,84.82
2018-05-18T00:33:30.708Z,84.75
2018-05-18T00:35:58.103Z,84.82
2018-05-18T00:38:25.498Z,84.52
2018-05-18T00:40:52.882Z,84.01
2018-05-18T00:43:20.275Z,84.59
2018-05-18T00:45:47.664Z,84.52
2018-05-18T00:48:15.059Z,84.47
2018-05-18T00:50:42.439Z,84.21
2018-05-18T00:53:09.827Z,84.05
2018-05-18T00:55:41.038Z,83.85
2018-05-18T00:58:08.471Z,84.32
2018-05-18T01:00:35.842Z,83.80
2018-05-18T01:03:03.238Z,83.53
2018-05-18T01:05:30.646Z,83.54
2018-05-18T01:07:58.038Z,83.36
2018-05-18T01:10:25.431Z,82.65
2018-05-18T01:12:52.823Z,83.27
2018-05-18T01:15:20.211Z,82.23
2018-05-18T01:17:47.605Z,81.76
2018-05-18T01:20:14.994Z,81.49
2018-05-18T01:22:42.382Z,81.55
2018-05-18T01:25:09.785Z,80.42
2018-05-18T01:27:37.176Z,80.00
2018-05-18T01:30:04.559Z,79.83
2018-05-18T01:32:31.947Z,79.05
2018-05-18T01:34:59.339Z,78.44
2018-05-18T01:37:26.726Z,78.40
2018-05-18T01:39:54.112Z,78.58
2018-05-18T01:42:21.495Z,78.29
2018-05-18T01:44:48.881Z,78.30
2018-05-18T01:47:16.270Z,78.53
2018-05-18T01:49:43.747Z,78.62
2018-05-18T01:52:11.118Z,77.99
2018-05-18T01:54:38.661Z,78.29
2018-05-18T01:57:06.043Z,78.59
2018-05-18T01:59:33.430Z,77.61
2018-05-18T02:02:00.823Z,78.71
2018-05-18T02:04:28.203Z,79.01
2018-05-18T02:06:55.586Z,79.26
2018-05-18T02:09:22.980Z,79.65
2018-05-18T02:11:50.367Z,79.55
2018-05-18T02:14:17.758Z,78.77
2018-05-18T02:16:45.146Z,78.68
2018-05-18T02:19:12.543Z,78.43
2018-05-18T02:21:39.939Z,78.67
2018-05-18T02:24:07.343Z,78.13
2018-05-18T02:26:34.731Z,77.67
2018-05-18T02:29:02.119Z,77.71
2018-05-18T02:31:29.507Z,77.34
2018-05-18T02:33:56.903Z,77.27
2018-05-18T02:36:24.307Z,77.82
2018-05-18T02:38:51.691Z,77.64
2018-05-18T02:41:19.091Z,77.95
2018-05-18T02:43:46.546Z,77.99
2018-05-18T02:46:13.943Z,78.16
2018-05-18T02:48:41.334Z,77.41
2018-05-18T02:51:08.727Z,77.13
2018-05-18T02:53:36.115Z,77.79
2018-05-18T02:56:03.507Z,78.40
2018-05-18T02:58:30.899Z,77.78
2018-05-18T03:00:58.283Z,77.92
2018-05-18T03:03:25.725Z,77.91
2018-05-18T03:05:53.182Z,78.23
2018-05-18T03:08:20.574Z,77.58
2018-05-18T03:10:47.973Z,77.73
2018-05-18T03:13:15.371Z,78.42
2018-05-18T03:15:42.759Z,79.06
2018-05-18T03:18:10.155Z,78.84
2018-05-18T03:20:37.543Z,78.87
2018-05-18T03:23:04.934Z,78.90
2018-05-18T03:25:32.331Z,78.74
2018-05-18T03:27:59.860Z,78.16
2018-05-18T03:30:27.169Z,78.73
2018-05-18T03:32:54.554Z,79.20
2018-05-18T03:35:21.951Z,78.33
2018-05-18T03:37:49.343Z,78.71
2018-05-18T03:40:16.739Z,77.66
2018-05-18T03:42:44.207Z,77.49
2018-05-18T03:45:11.594Z,78.07
2018-05-18T03:47:39.000Z,77.67
2018-05-18T03:50:06.374Z,77.48
2018-05-18T03:52:33.763Z,77.32
2018-05-18T03:55:01.155Z,76.38
2018-05-18T03:57:28.551Z,76.41
2018-05-18T03:59:55.963Z,76.72
2018-05-18T04:02:35.110Z,76.24
2018-05-18T04:05:14.127Z,76.22
2018-05-18T04:07:53.452Z,75.41
2018-05-18T04:10:20.811Z,74.98
2018-05-18T04:12:48.151Z,74.29
2018-05-18T04:15:15.551Z,74.00
2018-05-18T04:17:42.939Z,73.99
2018-05-18T04:20:10.388Z,73.83
2018-05-18T04:22:37.751Z,74.15
2018-05-18T04:25:06.245Z,73.72
2018-05-18T04:27:34.078Z,73.67
2018-05-18T04:30:01.549Z,73.09
2018-05-18T04:32:28.858Z,72.47
2018-05-18T04:34:56.258Z,71.53
2018-05-18T04:37:23.651Z,73.33
2018-05-18T04:39:51.037Z,73.71
2018-05-18T04:42:18.461Z,74.03
2018-05-18T04:44:45.851Z,74.36
2018-05-18T04:47:13.246Z,74.03
2018-05-18T04:49:40.680Z,74.19
2018-05-18T04:52:08.071Z,74.28
2018-05-18T04:54:35.586Z,74.42
2018-05-18T04:57:02.975Z,73.83
2018-05-18T04:59:30.368Z,73.45
2018-05-18T05:01:57.759Z,74.00
2018-05-18T05:04:25.147Z,74.26
2018-05-18T05:06:52.555Z,73.60
2018-05-18T05:09:20.127Z,74.14
2018-05-18T05:11:47.519Z,74.32
2018-05-18T05:14:15.039Z,73.94
2018-05-18T05:16:42.421Z,74.47
2018-05-18T05:19:09.981Z,74.29
2018-05-18T05:21:37.363Z,73.12
2018-05-18T05:24:04.751Z,73.14
2018-05-18T05:26:32.323Z,73.14
2018-05-18T05:28:59.728Z,73.47
2018-05-18T05:31:27.107Z,73.81
2018-05-18T05:33:54.508Z,72.78
2018-05-18T05:36:21.900Z,72.89
2018-05-18T05:38:49.298Z,73.45
2018-05-18T05:41:16.687Z,73.53
2018-05-18T05:43:44.091Z,73.57
2018-05-18T05:46:11.479Z,73.46
2018-05-18T05:48:38.930Z,73.03
2018-05-18T05:51:06.318Z,72.77
2018-05-18T05:53:33.842Z,72.36
2018-05-18T05:56:01.236Z,71.86
2018-05-18T05:58:28.665Z,72.11
2018-05-18T06:00:56.028Z,72.54
2018-05-18T06:03:23.402Z,72.40
2018-05-18T06:05:50.799Z,72.63
2018-05-18T06:08:18.186Z,71.18
2018-05-18T06:10:45.582Z,71.55
2018-05-18T06:13:12.971Z,71.99
2018-05-18T06:15:40.376Z,71.98
2018-05-18T06:18:07.806Z,71.98
2018-05-18T06:20:35.187Z,72.29
2018-05-18T06:23:02.582Z,71.74
2018-05-18T06:25:30.039Z,71.17
2018-05-18T06:27:57.504Z,70.59
2018-05-18T06:30:24.891Z,70.40
2018-05-18T06:32:52.283Z,68.99
2018-05-18T06:35:19.738Z,69.54
2018-05-18T06:37:47.071Z,68.06
2018-05-18T06:40:14.459Z,68.32
2018-05-18T06:42:41.847Z,67.85
2018-05-18T06:45:09.234Z,67.79
2018-05-18T06:47:36.623Z,67.10
2018-05-18T06:50:04.010Z,67.82
2018-05-18T06:52:31.492Z,67.64
2018-05-18T06:54:58.784Z,65.74
2018-05-18T06:57:26.179Z,65.13
2018-05-18T06:59:53.563Z,63.44
2018-05-18T07:02:21.008Z,65.27
2018-05-18T07:04:48.400Z,65.06
2018-05-18T07:07:15.786Z,65.13
2018-05-18T07:09:43.187Z,66.04
2018-05-18T07:12:10.572Z,66.11
2018-05-18T07:14:37.967Z,66.75
2018-05-18T07:17:05.354Z,66.20
2018-05-18T07:19:32.763Z,66.34
2018-05-18T07:22:00.172Z,65.94
2018-05-18T07:24:27.554Z,64.97
2018-05-18T07:26:54.968Z,65.25
2018-05-18T07:29:22.364Z,65.93
2018-05-18T07:31:49.746Z,65.04
2018-05-18T07:34:17.218Z,64.56
2018-05-18T07:36:44.604Z,64.01
2018-05-18T07:39:11.991Z,63.66
2018-05-18T07:41:39.395Z,65.39
2018-05-18T07:44:06.779Z,63.12
2018-05-18T07:46:34.170Z,63.29
2018-05-18T07:49:01.567Z,63.67
2018-05-18T07:51:28.965Z,63.01
2018-05-18T07:53:56.350Z,63.26
2018-05-18T07:56:23.747Z,64.47
2018-05-18T07:58:51.131Z,63.62
2018-05-18T08:01:18.527Z,63.60
2018-05-18T08:03:45.910Z,61.99
2018-05-18T08:06:13.299Z,63.28
2018-05-18T08:08:40.686Z,60.99
2018-05-18T08:11:08.086Z,60.83
2018-05-18T08:13:35.474Z,60.44
2018-05-18T08:16:02.927Z,58.91
2018-05-18T08:18:30.259Z,60.44
2018-05-18T08:20:57.638Z,60.29
2018-05-18T08:23:36.810Z,58.29
2018-05-18T08:26:04.201Z,58.50
2018-05-18T08:28:43.384Z,58.78
2018-05-18T08:31:10.766Z,57.32
2018-05-18T08:33:38.158Z,57.26
2018-05-18T08:36:05.547Z,58.08
2018-05-18T08:38:32.938Z,58.41
2018-05-18T08:41:00.341Z,60.22
2018-05-18T08:43:27.792Z,58.80
2018-05-18T08:45:55.190Z,59.19
2018-05-18T08:48:22.599Z,57.37
2018-05-18T08:50:49.995Z,54.88
2018-05-18T08:53:17.382Z,55.37
2018-05-18T08:55:44.783Z,56.82
2018-05-18T08:58:12.211Z,55.94
2018-05-18T09:00:39.623Z,54.24
2018-05-18T09:03:06.994Z,54.61
2018-05-18T09:05:34.383Z,56.17
2018-05-18T09:08:01.768Z,56.60
2018-05-18T09:10:29.163Z,57.41
2018-05-18T09:12:56.635Z,54.50
2018-05-18T09:15:24.024Z,56.69
2018-05-18T09:17:51.414Z,54.54
2018-05-18T09:20:18.803Z,55.55
2018-05-18T09:22:46.190Z,55.39
2018-05-18T09:25:13.583Z,56.69
2018-05-18T09:27:40.971Z,57.42
2018-05-18T09:30:08.362Z,57.64
2018-05-18T09:32:35.751Z,56.07
2018-05-18T09:35:03.139Z,56.29
2018-05-18T09:37:30.531Z,54.80
2018-05-18T09:39:57.910Z,53.58
2018-05-18T09:42:25.302Z,53.85
2018-05-18T09:44:52.686Z,53.41
2018-05-18T09:47:20.075Z,52.68
2018-05-18T09:49:47.463Z,52.66
2018-05-18T09:52:14.958Z,53.29
2018-05-18T09:54:42.406Z,50.39
2018-05-18T09:57:09.730Z,50.41
2018-05-18T09:59:37.125Z,50.32
2018-05-18T10:02:04.535Z,50.89
2018-05-18T10:04:31.945Z,49.95
2018-05-18T10:06:59.330Z,48.95
2018-05-18T10:09:26.723Z,46.81
2018-05-18T10:11:54.099Z,48.61
2018-05-18T10:14:21.491Z,48.18
2018-05-18T10:16:48.916Z,47.18
2018-05-18T10:19:16.295Z,47.59
2018-05-18T10:21:43.686Z,47.13
2018-05-18T10:24:11.078Z,44.01
2018-05-18T10:26:38.499Z,45.75
2018-05-18T10:29:05.903Z,44.48
2018-05-18T10:31:33.286Z,44.54
2018-05-18T10:34:00.680Z,46.41
2018-05-18T10:36:28.071Z,42.65
2018-05-18T10:38:55.507Z,45.55
2018-05-18T10:41:22.895Z,43.53
2018-05-18T10:43:50.298Z,43.18
2018-05-18T10:46:17.675Z,41.50
2018-05-18T10:48:45.058Z,40.45
2018-05-18T10:51:12.463Z,41.09
2018-05-18T10:53:39.847Z,42.83
2018-05-18T10:56:07.235Z,42.29
2018-05-18T10:58:34.624Z,39.24
2018-05-18T11:01:02.015Z,40.68
2018-05-18T11:03:29.399Z,40.31
2018-05-18T11:05:56.791Z,40.62
2018-05-18T11:08:24.176Z,42.15
2018-05-18T11:10:51.570Z,43.00
2018-05-18T11:13:19.778Z,42.78
2018-05-18T11:15:47.178Z,41.30
2018-05-18T11:18:14.571Z,40.21
2018-05-18T11:20:41.966Z,42.14
2018-05-18T11:23:09.419Z,40.48
2018-05-18T11:25:36.847Z,41.38
2018-05-18T11:28:04.244Z,41.55
2018-05-18T11:30:31.627Z,41.35
2018-05-18T11:32:59.019Z,40.61
2018-05-18T11:35:26.403Z,37.87
2018-05-18T11:37:53.887Z,40.43
2018-05-18T11:40:21.279Z,39.97
2018-05-18T11:42:48.666Z,40.57
2018-05-18T11:45:16.067Z,38.98
2018-05-18T11:47:43.467Z,40.74
2018-05-18T11:50:10.885Z,39.97
2018-05-18T11:52:38.262Z,40.11
2018-05-18T11:55:05.739Z,38.05
2018-05-18T11:57:33.131Z,39.97
2018-05-18T12:00:00.519Z,39.78
2018-05-18T12:02:27.975Z,39.04
2018-05-18T12:04:55.379Z,39.77
2018-05-18T12:07:22.758Z,38.92
2018-05-18T12:09:50.154Z,39.46
2018-05-18T12:12:17.638Z,39.29
2018-05-18T12:14:45.067Z,38.35
2018-05-18T12:17:12.462Z,39.96
2018-05-18T12:19:39.915Z,41.03
2018-05-18T12:22:07.294Z,37.24
2018-05-18T12:24:34.698Z,40.24
2018-05-18T12:27:02.120Z,39.64
2018-05-18T12:29:29.503Z,40.44
2018-05-18T12:31:56.899Z,41.01
2018-05-18T12:34:24.286Z,41.91
2018-05-18T12:36:51.695Z,42.13
2018-05-18T12:39:19.083Z,43.95
2018-05-18T12:41:46.474Z,42.42
2018-05-18T12:44:13.867Z,41.28
2018-05-18T12:46:41.260Z,41.10
2018-05-18T12:49:08.638Z,39.68
2018-05-18T12:51:36.035Z,41.29
2018-05-18T12:54:03.478Z,41.37
2018-05-18T12:56:30.819Z,39.77
2018-05-18T12:58:58.211Z,41.58
2018-05-18T13:01:25.616Z,37.33
2018-05-18T13:03:53.006Z,39.06
2018-05-18T13:06:20.402Z,40.39
2018-05-18T13:08:47.786Z,40.18
2018-05-18T13:11:15.197Z,40.86
2018-05-18T13:13:42.567Z,40.67
2018-05-18T13:16:09.955Z,40.42
2018-05-18T13:18:37.359Z,40.00
2018-05-18T13:21:04.742Z,40.00
2018-05-18T13:23:32.140Z,42.35
2018-05-18T13:25:59.527Z,42.48
2018-05-18T13:28:27.075Z,38.90
2018-05-18T13:30:54.458Z,41.36
2018-05-18T13:33:21.855Z,39.22
2018-05-18T13:35:49.231Z,41.96
2018-05-18T13:38:16.627Z,41.63
2018-05-18T13:40:44.020Z,42.42
2018-05-18T13:43:11.414Z,40.24
2018-05-18T13:45:38.866Z,37.78
2018-05-18T13:48:06.248Z,39.00
2018-05-18T13:50:33.670Z,39.01
2018-05-18T13:53:01.055Z,38.51
2018-05-18T13:55:28.458Z,40.24
2018-05-18T13:57:55.843Z,40.50
2018-05-18T14:00:23.283Z,41.70
2018-05-18T14:02:50.674Z,40.24
2018-05-18T14:05:18.079Z,41.89
2018-05-18T14:07:45.459Z,41.36
2018-05-18T14:10:12.852Z,42.27
2018-05-18T14:12:40.235Z,42.52
2018-05-18T14:15:07.627Z,42.73
2018-05-18T14:17:35.013Z,44.18
2018-05-18T14:20:02.450Z,42.75
2018-05-18T14:22:29.832Z,41.23
2018-05-18T14:24:57.223Z,41.55
2018-05-18T14:27:24.611Z,41.04
2018-05-18T14:29:52.011Z,41.18
2018-05-18T14:32:19.392Z,42.98
2018-05-18T14:34:46.855Z,42.25
2018-05-18T14:37:14.246Z,43.06
2018-05-18T14:39:41.630Z,42.08
2018-05-18T14:42:09.029Z,43.19
2018-05-18T14:44:36.419Z,44.59
2018-05-18T14:47:03.806Z,41.96
2018-05-18T14:49:31.200Z,41.74
2018-05-18T14:51:58.587Z,42.47
2018-05-18T14:54:25.971Z,41.97
2018-05-18T14:56:53.371Z,44.03
2018-05-18T14:59:20.759Z,42.89
2018-05-18T15:01:48.152Z,44.31
2018-05-18T15:04:15.668Z,44.60
2018-05-18T15:06:43.067Z,43.05
2018-05-18T15:09:10.454Z,42.50
2018-05-18T15:11:37.838Z,41.01
2018-05-18T15:14:05.230Z,40.73
2018-05-18T15:16:32.627Z,43.41
2018-05-18T15:19:00.027Z,41.48
2018-05-18T15:21:27.514Z,43.16
2018-05-18T15:23:54.912Z,44.81
2018-05-18T15:26:22.299Z,44.69
2018-05-18T15:28:49.754Z,44.84
2018-05-18T15:31:17.070Z,42.91
2018-05-18T15:33:44.467Z,44.57
2018-05-18T15:36:11.855Z,43.99
2018-05-18T15:38:39.247Z,42.55
2018-05-18T15:41:06.656Z,41.71
2018-05-18T15:43:34.094Z,41.76
2018-05-18T15:46:01.490Z,42.17
2018-05-18T15:48:28.876Z,41.75
2018-05-18T15:50:56.263Z,41.62
2018-05-18T15:53:23.668Z,42.36
2018-05-18T15:55:51.060Z,42.23
2018-05-18T15:58:19.494Z,40.99
2018-05-18T16:00:46.930Z,41.84
2018-05-18T16:03:14.606Z,41.72
2018-05-18T16:05:42.028Z,42.93
2018-05-18T16:08:09.442Z,42.61
2018-05-18T16:10:36.915Z,41.33
2018-05-18T16:13:04.350Z,41.90
2018-05-18T16:15:31.843Z,42.38
2018-05-18T16:17:59.294Z,42.72
2018-05-18T16:20:26.726Z,41.91
2018-05-18T16:22:54.166Z,43.33
2018-05-18T16:25:21.563Z,41.23
2018-05-18T16:27:49.119Z,42.51
2018-05-18T16:30:16.566Z,43.29
2018-05-18T16:32:44.031Z,43.68
2018-05-18T16:35:11.438Z,44.26
2018-05-18T16:37:38.818Z,44.44
2018-05-18T16:40:06.289Z,45.33
2018-05-18T16:42:33.999Z,44.12
2018-05-18T16:45:01.474Z,43.93
2018-05-18T16:47:29.037Z,43.70
2018-05-18T16:49:56.494Z,44.37
2018-05-18T16:52:23.943Z,44.03
2018-05-18T16:54:51.383Z,45.13
2018-05-18T16:57:18.774Z,45.43
2018-05-18T16:59:46.222Z,43.21
2018-05-18T17:02:13.690Z,43.48
2018-05-18T17:04:41.142Z,42.47
2018-05-18T17:07:08.567Z,43.33
2018-05-18T17:09:35.954Z,43.59
2018-05-18T17:12:03.363Z,43.49
2018-05-18T17:14:30.812Z,44.25
2018-05-18T17:16:58.286Z,44.47
2018-05-18T17:19:25.731Z,44.64
2018-05-18T17:21:53.177Z,45.94
2018-05-18T17:24:20.578Z,44.57
2018-05-18T17:26:48.044Z,43.48
2018-05-18T17:29:15.454Z,44.31
2018-05-18T17:31:42.890Z,43.80
2018-05-18T17:34:11.337Z,43.87
2018-05-18T17:36:38.926Z,45.21
2018-05-18T17:39:06.349Z,46.22
2018-05-18T17:41:33.726Z,46.52
2018-05-18T17:44:01.120Z,46.11
2018-05-18T17:46:28.526Z,46.23
2018-05-18T17:48:56.029Z,46.78
2018-05-18T17:51:23.338Z,47.53
2018-05-18T17:53:50.739Z,47.29
2018-05-18T17:56:18.119Z,49.39
2018-05-18T17:58:45.506Z,47.78
2018-05-18T18:01:12.891Z,48.83
2018-05-18T18:03:40.282Z,49.46
2018-05-18T18:06:07.683Z,50.11
2018-05-18T18:08:35.071Z,50.61
2018-05-18T18:11:02.466Z,51.04
2018-05-18T18:13:29.965Z,50.92
2018-05-18T18:15:57.346Z,50.51
2018-05-18T18:18:24.752Z,50.90
2018-05-18T18:20:52.146Z,51.98
2018-05-18T18:23:19.537Z,52.14
2018-05-18T18:25:46.926Z,52.56
2018-05-18T18:28:14.339Z,53.35
2018-05-18T18:30:41.730Z,53.24
2018-05-18T18:33:09.118Z,53.55
2018-05-18T18:35:36.511Z,54.50
2018-05-18T18:38:03.902Z,54.47
2018-05-18T18:40:31.306Z,55.19
2018-05-18T18:42:58.700Z,55.01
2018-05-18T18:45:26.092Z,55.32
2018-05-18T18:47:53.488Z,55.93
2018-05-18T18:50:20.867Z,56.30
2018-05-18T18:52:48.271Z,56.96
2018-05-18T18:55:15.647Z,57.31
2018-05-18T18:57:43.042Z,57.10
2018-05-18T19:00:10.426Z,57.89
2018-05-18T19:02:37.819Z,57.52
2018-05-18T19:05:05.210Z,57.33
2018-05-18T19:07:32.619Z,57.10
2018-05-18T19:10:00.003Z,57.52
2018-05-18T19:12:27.403Z,57.35
2018-05-18T19:14:54.874Z,57.65
2018-05-18T19:17:22.263Z,58.41
2018-05-18T19:19:49.663Z,58.39
2018-05-18T19:22:17.050Z,58.58
2018-05-18T19:24:44.443Z,58.63
2018-05-18T19:27:11.895Z,58.70
2018-05-18T19:29:39.304Z,59.06
2018-05-18T19:32:06.679Z,59.05
2018-05-18T19:34:34.071Z,59.03
2018-05-18T19:37:01.462Z,59.04
2018-05-18T19:39:28.869Z,59.43
2018-05-18T19:41:56.243Z,59.35
2018-05-18T19:44:23.634Z,59.95
2018-05-18T19:46:51.027Z,60.08
2018-05-18T19:49:18.477Z,60.15
2018-05-18T19:51:45.871Z,60.53
2018-05-18T19:54:13.285Z,60.88
2018-05-18T19:56:40.675Z,61.14
2018-05-18T19:59:08.067Z,61.40
2018-05-18T20:01:35.458Z,61.37
2018-05-18T20:04:02.842Z,61.75
2018-05-18T20:06:30.237Z,62.13
2018-05-18T20:08:57.631Z,61.86
2018-05-18T20:11:25.018Z,62.21
2018-05-18T20:13:52.403Z,62.72
2018-05-18T20:16:19.795Z,62.95
2018-05-18T20:18:47.179Z,63.11
2018-05-18T20:21:14.618Z,63.20
2018-05-18T20:23:41.982Z,63.49
2018-05-18T20:26:09.374Z,63.59
2018-05-18T20:28:36.768Z,63.90
2018-05-18T20:31:04.167Z,64.02
2018-05-18T20:33:31.555Z,64.27
2018-05-18T20:35:58.971Z,64.84
2018-05-18T20:38:26.355Z,64.87
2018-05-18T20:40:53.763Z,65.29
2018-05-18T20:43:21.146Z,65.29
2018-05-18T20:45:48.535Z,65.98
2018-05-18T20:48:16.022Z,66.62
2018-05-18T20:50:43.414Z,67.01
2018-05-18T20:53:10.807Z,67.08
2018-05-18T20:55:38.200Z,67.10
2018-05-18T20:58:05.736Z,67.74
2018-05-18T21:00:33.127Z,68.08
2018-05-18T21:03:00.523Z,68.01
2018-05-18T21:05:27.906Z,68.39
2018-05-18T21:07:55.302Z,68.58
2018-05-18T21:10:22.685Z,68.38
2018-05-18T21:12:50.077Z,68.68
2018-05-18T21:15:17.463Z,68.96
2018-05-18T21:17:44.907Z,69.46
2018-05-18T21:20:12.271Z,69.47
2018-05-18T21:22:39.669Z,69.58
2018-05-18T21:25:07.052Z,69.69
2018-05-18T21:27:34.450Z,69.66
2018-05-18T21:30:01.843Z,70.03
2018-05-18T21:32:29.231Z,70.10
2018-05-18T21:34:56.620Z,70.30
2018-05-18T21:37:24.038Z,70.38
2018-05-18T21:39:52.081Z,70.21
2018-05-18T21:42:20.134Z,70.46
2018-05-18T21:44:47.506Z,70.79
2018-05-18T21:47:14.895Z,70.98
2018-05-18T21:49:42.291Z,71.08
2018-05-18T21:52:09.670Z,71.15
2018-05-18T21:54:37.064Z,71.17
2018-05-18T21:57:04.461Z,71.84
2018-05-18T21:59:31.851Z,71.68
2018-05-18T22:01:59.239Z,72.12
2018-05-18T22:04:26.636Z,72.24
2018-05-18T22:06:54.022Z,72.45
2018-05-18T22:09:21.409Z,72.27
2018-05-18T22:11:48.799Z,72.01
2018-05-18T22:14:16.243Z,72.31
2018-05-18T22:16:43.579Z,72.92
2018-05-18T22:19:10.966Z,72.50
2018-05-18T22:21:38.358Z,72.88
2018-05-18T22:24:05.740Z,72.90
2018-05-18T22:26:33.130Z,72.68
2018-05-18T22:29:00.515Z,72.63
2018-05-18T22:31:27.907Z,72.97
2018-05-18T22:33:55.290Z,73.19
2018-05-18T22:36:22.683Z,73.56
2018-05-18T22:38:50.071Z,73.87
2018-05-18T22:41:17.466Z,73.68
2018-05-18T22:43:44.854Z,73.84
2018-05-18T22:46:12.243Z,73.88
2018-05-18T22:48:39.635Z,74.25
2018-05-18T22:51:07.023Z,74.34
2018-05-18T22:53:34.411Z,74.32
2018-05-18T22:56:02.534Z,74.22
2018-05-18T22:58:29.932Z,74.88
2018-05-18T23:00:57.332Z,75.08
2018-05-18T23:03:24.828Z,75.20
2018-05-18T23:05:52.214Z,75.52
2018-05-18T23:08:19.607Z,75.52
2018-05-18T23:10:47.000Z,75.42
2018-05-18T23:13:14.394Z,75.66
2018-05-18T23:15:41.779Z,76.15
2018-05-18T23:18:09.174Z,75.86
2018-05-18T23:20:36.570Z,76.22
2018-05-18T23:23:03.963Z,76.27
2018-05-18T23:25:31.358Z,76.11
2018-05-18T23:27:58.750Z,76.35
2018-05-18T23:30:26.142Z,76.65
2018-05-18T23:32:53.539Z,76.61
2018-05-18T23:35:20.927Z,76.73
2018-05-18T23:37:48.314Z,76.94
2018-05-18T23:40:15.706Z,77.69
2018-05-18T23:42:43.098Z,77.42
2018-05-18T23:45:11.410Z,77.52
2018-05-18T23:47:38.796Z,77.30
2018-05-18T23:50:06.238Z,78.04
2018-05-18T23:52:33.623Z,77.82
2018-05-18T23:55:01.022Z,78.07
2018-05-18T23:57:28.403Z,77.82
2018-05-18T23:59:56.019Z,78.22
